createdAt,value
2022-12-11T00:02:00.816Z,0.81
2022-12-11T00:04:28.682Z,1.09
2022-12-11T00:06:57.976Z,0.71
2022-12-11T00:09:25.706Z,0.84
2022-12-11T00:11:53.510Z,1.00
2022-12-11T00:14:21.397Z,0.95
2022-12-11T00:16:49.714Z,0.70
2022-12-11T00:19:17.912Z,1.03
2022-12-11T00:21:45.636Z,0.36
2022-12-11T00:24:14.681Z,0.03
2022-12-11T00:26:42.359Z,0.60
2022-12-11T00:29:14.433Z,0.89
2022-12-11T00:31:42.852Z,0.82
2022-12-11T00:34:11.961Z,0.16
2022-12-11T00:36:39.955Z,-0.87
2022-12-11T00:39:08.334Z,-1.02
2022-12-11T00:41:37.394Z,-0.30
2022-12-11T00:44:05.409Z,-0.52
2022-12-11T00:46:33.170Z,-1.45
2022-12-11T00:49:00.939Z,-0.81
2022-12-11T00:51:28.997Z,-0.36
2022-12-11T00:53:56.718Z,-0.29
2022-12-11T00:56:25.223Z,-0.29
2022-12-11T00:58:54.270Z,0.30
2022-12-11T01:01:24.378Z,0.32
2022-12-11T01:03:53.526Z,0.39
2022-12-11T01:06:24.236Z,-0.08
2022-12-11T01:09:14.283Z,0.01
2022-12-11T01:11:42.448Z,-0.59
2022-12-11T01:14:12.168Z,-0.37
2022-12-11T01:16:40.195Z,-0.11
2022-12-11T01:19:07.952Z,0.41
2022-12-11T01:21:35.752Z,0.21
2022-12-11T01:24:03.462Z,0.17
2022-12-11T01:26:31.198Z,0.18
2022-12-11T01:28:58.948Z,0.52
2022-12-11T01:31:28.143Z,-0.15
2022-12-11T01:33:55.952Z,-0.33
2022-12-11T01:36:24.627Z,-0.23
2022-12-11T01:38:54.297Z,0.53
2022-12-11T01:41:22.696Z,0.76
2022-12-11T01:44:25.944Z,-0.22
2022-12-11T01:46:55.087Z,0.55
2022-12-11T01:49:26.844Z,-0.17
2022-12-11T01:51:58.890Z,-0.27
2022-12-11T01:54:29.965Z,-0.93
2022-12-11T01:57:01.105Z,-1.06
2022-12-11T01:59:31.866Z,-1.39
2022-12-11T02:02:05.862Z,-1.37
2022-12-11T02:04:36.554Z,-1.36
2022-12-11T02:07:04.689Z,-1.55
2022-12-11T02:09:34.556Z,-1.48
2022-12-11T02:12:04.554Z,-1.52
2022-12-11T02:14:40.442Z,-1.44
2022-12-11T02:17:14.780Z,-1.42
2022-12-11T02:19:57.610Z,-1.53
2022-12-11T02:22:37.502Z,-0.97
2022-12-11T02:25:17.716Z,-0.72
2022-12-11T02:27:48.764Z,-0.88
2022-12-11T02:30:18.543Z,-0.90
2022-12-11T02:32:49.952Z,-0.92
2022-12-11T02:35:21.447Z,-1.21
2022-12-11T02:37:52.850Z,-1.14
2022-12-11T02:40:25.998Z,-1.37
2022-12-11T02:42:55.188Z,-1.65
2022-12-11T02:45:27.443Z,-1.30
2022-12-11T02:47:58.735Z,-1.17
2022-12-11T02:50:28.412Z,-0.86
2022-12-11T02:52:58.670Z,-1.43
2022-12-11T02:55:29.471Z,-1.41
2022-12-11T02:58:04.871Z,-1.59
2022-12-11T03:00:34.001Z,-1.65
2022-12-11T03:03:03.233Z,-1.74
2022-12-11T03:05:32.013Z,-1.48
2022-12-11T03:07:59.953Z,-1.69
2022-12-11T03:10:27.659Z,-1.44
2022-12-11T03:12:58.228Z,-1.72
2022-12-11T03:15:40.109Z,-1.69
2022-12-11T03:18:16.624Z,-1.59
2022-12-11T03:20:46.199Z,-1.83
2022-12-11T03:23:21.164Z,-1.49
2022-12-11T03:25:55.729Z,-1.48
2022-12-11T03:28:30.410Z,-1.43
2022-12-11T03:31:05.389Z,-1.47
2022-12-11T03:33:38.674Z,-1.58
2022-12-11T03:36:09.502Z,-1.48
2022-12-11T03:38:41.102Z,-1.53
2022-12-11T03:41:10.187Z,-1.64
2022-12-11T03:43:39.386Z,-1.57
2022-12-11T03:46:10.260Z,-1.76
2022-12-11T03:48:42.608Z,-1.66
2022-12-11T03:51:10.874Z,-1.72
2022-12-11T03:53:40.040Z,-1.88
2022-12-11T03:56:11.786Z,-1.88
2022-12-11T03:58:39.594Z,-1.87
2022-12-11T04:01:11.183Z,-1.82
2022-12-11T04:03:39.928Z,-1.98
2022-12-11T04:06:08.374Z,-1.90
2022-12-11T04:08:36.070Z,-1.61
2022-12-11T04:11:22.567Z,-1.68
2022-12-11T04:14:11.159Z,-1.78
2022-12-11T04:16:39.279Z,-1.81
2022-12-11T04:19:24.828Z,-1.20
2022-12-11T04:22:10.182Z,-1.64
2022-12-11T04:24:37.843Z,-1.23
2022-12-11T04:27:05.781Z,-0.45
2022-12-11T04:29:33.483Z,0.41
2022-12-11T04:32:02.522Z,0.69
2022-12-11T04:34:30.969Z,0.89
2022-12-11T04:36:59.212Z,0.92
2022-12-11T04:39:26.916Z,1.13
2022-12-11T04:41:54.605Z,1.53
2022-12-11T04:44:22.321Z,1.21
2022-12-11T04:46:50.078Z,0.62
2022-12-11T04:49:19.240Z,-0.19
2022-12-11T04:51:47.000Z,0.02
2022-12-11T04:54:14.651Z,0.24
2022-12-11T04:56:42.402Z,-0.24
2022-12-11T04:59:10.063Z,0.23
2022-12-11T05:01:37.879Z,0.76
2022-12-11T05:04:05.968Z,0.47
2022-12-11T05:06:35.000Z,-0.31
2022-12-11T05:09:02.673Z,-0.46
2022-12-11T05:11:30.587Z,0.40
2022-12-11T05:13:58.299Z,0.69
2022-12-11T05:16:26.047Z,1.06
2022-12-11T05:18:53.778Z,1.47
2022-12-11T05:21:21.615Z,0.98
2022-12-11T05:23:50.735Z,-0.82
2022-12-11T05:26:20.642Z,-1.18
2022-12-11T05:28:53.211Z,-1.23
2022-12-11T05:31:22.882Z,-1.21
2022-12-11T05:33:51.192Z,-1.32
2022-12-11T05:36:22.130Z,-0.79
2022-12-11T05:38:52.126Z,-0.01
2022-12-11T05:41:23.320Z,-0.14
2022-12-11T05:43:51.073Z,0.51
2022-12-11T05:46:20.655Z,1.03
2022-12-11T05:48:50.980Z,1.10
2022-12-11T05:51:19.872Z,0.75
2022-12-11T05:53:52.986Z,0.46
2022-12-11T05:56:22.666Z,0.25
2022-12-11T05:58:51.333Z,0.13
2022-12-11T06:01:21.508Z,0.73
2022-12-11T06:03:49.370Z,0.91
2022-12-11T06:06:17.103Z,1.14
2022-12-11T06:08:44.944Z,1.43
2022-12-11T06:11:18.355Z,0.34
2022-12-11T06:13:48.750Z,-1.14
2022-12-11T06:16:16.845Z,-1.18
2022-12-11T06:18:46.231Z,-1.19
2022-12-11T06:21:15.686Z,-0.13
2022-12-11T06:23:44.507Z,0.28
2022-12-11T06:26:12.735Z,-0.31
2022-12-11T06:28:41.798Z,-0.16
2022-12-11T06:31:09.670Z,-1.17
2022-12-11T06:33:37.715Z,-0.50
2022-12-11T06:36:07.438Z,-1.50
2022-12-11T06:38:35.218Z,-1.89
2022-12-11T06:41:05.647Z,-2.14
2022-12-11T06:43:33.855Z,-2.21
2022-12-11T06:46:04.720Z,-1.99
2022-12-11T06:48:32.802Z,-2.21
2022-12-11T06:51:00.509Z,-2.21
2022-12-11T06:53:28.355Z,-2.29
2022-12-11T06:55:56.076Z,-2.37
2022-12-11T06:58:23.850Z,-2.30
2022-12-11T07:00:51.535Z,-2.21
2022-12-11T07:03:20.634Z,-2.21
2022-12-11T07:05:48.265Z,-2.20
2022-12-11T07:08:16.323Z,-2.14
2022-12-11T07:10:44.074Z,-2.15
2022-12-11T07:13:11.822Z,-2.05
2022-12-11T07:15:40.639Z,-1.98
2022-12-11T07:18:08.413Z,-1.90
2022-12-11T07:20:37.538Z,-1.93
2022-12-11T07:23:05.280Z,-1.85
2022-12-11T07:25:34.062Z,-1.49
2022-12-11T07:28:01.767Z,-1.88
2022-12-11T07:30:29.511Z,-1.73
2022-12-11T07:32:57.297Z,-1.55
2022-12-11T07:35:25.267Z,-1.43
2022-12-11T07:37:54.315Z,-1.78
2022-12-11T07:40:22.104Z,-1.62
2022-12-11T07:42:49.860Z,-1.41
2022-12-11T07:45:17.752Z,-1.56
2022-12-11T07:47:45.521Z,-1.70
2022-12-11T07:50:13.281Z,-1.66
2022-12-11T07:52:41.226Z,-1.54
2022-12-11T07:55:11.285Z,-1.42
2022-12-11T07:57:40.978Z,-1.27
2022-12-11T08:00:10.624Z,-1.17
2022-12-11T08:02:41.303Z,-1.08
2022-12-11T08:05:10.391Z,-0.79
2022-12-11T08:07:38.309Z,-1.01
2022-12-11T08:10:06.783Z,-0.77
2022-12-11T08:12:35.879Z,-1.17
2022-12-11T08:15:03.995Z,-1.36
2022-12-11T08:17:36.667Z,-1.61
2022-12-11T08:20:09.365Z,-1.60
2022-12-11T08:22:37.312Z,-1.47
2022-12-11T08:25:05.598Z,-1.59
2022-12-11T08:27:33.309Z,-1.61
2022-12-11T08:30:02.429Z,-1.59
2022-12-11T08:32:30.183Z,-1.64
2022-12-11T08:34:58.031Z,-1.58
2022-12-11T08:37:25.786Z,-1.49
2022-12-11T08:39:53.604Z,-1.57
2022-12-11T08:42:22.564Z,-1.92
2022-12-11T08:44:50.345Z,-1.43
2022-12-11T08:47:19.567Z,-1.74
2022-12-11T08:49:47.268Z,-1.94
2022-12-11T08:52:17.967Z,-2.10
2022-12-11T08:54:45.703Z,-2.24
2022-12-11T08:57:13.403Z,-2.26
2022-12-11T08:59:41.732Z,-2.18
2022-12-11T09:02:12.545Z,-2.08
2022-12-11T09:04:41.950Z,-1.94
2022-12-11T09:07:09.690Z,-1.87
2022-12-11T09:09:37.426Z,-1.61
2022-12-11T09:12:05.754Z,-1.28
2022-12-11T09:14:33.533Z,-0.90
2022-12-11T09:17:01.235Z,-0.86
2022-12-11T09:19:32.258Z,-0.32
2022-12-11T09:22:01.659Z,-0.74
2022-12-11T09:24:29.452Z,-0.88
2022-12-11T09:26:57.165Z,-0.43
2022-12-11T09:29:24.955Z,0.19
2022-12-11T09:31:52.681Z,0.14
2022-12-11T09:34:26.071Z,0.28
2022-12-11T09:36:59.051Z,0.34
2022-12-11T09:39:28.212Z,0.04
2022-12-11T09:42:04.512Z,0.71
2022-12-11T09:44:40.998Z,1.33
2022-12-11T09:47:23.140Z,1.54
2022-12-11T09:49:55.986Z,1.53
2022-12-11T09:52:29.785Z,1.89
2022-12-11T09:55:01.939Z,2.06
2022-12-11T09:57:36.736Z,0.63
2022-12-11T10:00:17.043Z,0.01
2022-12-11T10:02:57.966Z,0.94
2022-12-11T10:05:35.344Z,-0.49
2022-12-11T10:08:13.480Z,-0.35
2022-12-11T10:10:47.606Z,0.44
2022-12-11T10:13:28.379Z,-0.03
2022-12-11T10:16:01.240Z,1.23
2022-12-11T10:18:30.953Z,0.77
2022-12-11T10:21:02.837Z,0.53
2022-12-11T10:23:36.958Z,0.74
2022-12-11T10:26:08.436Z,0.21
2022-12-11T10:28:36.804Z,0.39
2022-12-11T10:31:14.557Z,1.01
2022-12-11T10:33:52.520Z,1.73
2022-12-11T10:36:26.860Z,1.66
2022-12-11T10:38:54.856Z,2.00
2022-12-11T10:41:25.855Z,1.70
2022-12-11T10:43:54.928Z,1.59
2022-12-11T10:46:25.199Z,1.24
2022-12-11T10:48:55.699Z,1.06
2022-12-11T10:51:25.921Z,1.28
2022-12-11T10:53:56.935Z,1.06
2022-12-11T10:56:30.152Z,0.75
2022-12-11T10:58:59.574Z,0.88
2022-12-11T11:01:29.897Z,1.26
2022-12-11T11:04:01.298Z,1.56
2022-12-11T11:06:29.174Z,0.87
2022-12-11T11:08:59.009Z,0.91
2022-12-11T11:11:33.800Z,0.95
2022-12-11T11:14:14.857Z,-0.49
2022-12-11T11:16:45.684Z,-0.23
2022-12-11T11:19:21.379Z,0.43
2022-12-11T11:21:52.344Z,0.61
2022-12-11T11:24:27.732Z,0.43
2022-12-11T11:27:12.975Z,0.66
2022-12-11T11:29:42.711Z,1.38
2022-12-11T11:32:20.848Z,0.88
2022-12-11T11:34:48.665Z,1.85
2022-12-11T11:37:31.834Z,2.24
2022-12-11T11:40:08.260Z,2.25
2022-12-11T11:42:46.650Z,2.36
2022-12-11T11:45:18.802Z,2.37
2022-12-11T11:47:57.163Z,2.43
2022-12-11T11:50:30.419Z,2.99
2022-12-11T11:53:03.753Z,3.28
2022-12-11T11:55:42.162Z,2.75
2022-12-11T11:58:16.746Z,2.64
2022-12-11T12:00:44.648Z,3.42
2022-12-11T12:03:15.101Z,3.45
2022-12-11T12:05:51.155Z,3.12
2022-12-11T12:08:31.398Z,3.50
2022-12-11T12:11:04.740Z,3.46
2022-12-11T12:13:50.455Z,3.18
2022-12-11T12:16:51.471Z,3.49
2022-12-11T12:19:25.546Z,3.29
2022-12-11T12:21:54.740Z,3.71
2022-12-11T12:24:36.843Z,3.69
2022-12-11T12:27:50.558Z,3.80
2022-12-11T12:30:20.373Z,4.54
2022-12-11T12:33:03.240Z,3.94
2022-12-11T12:35:36.750Z,3.83
2022-12-11T12:38:15.111Z,3.54
2022-12-11T12:40:55.544Z,3.85
2022-12-11T12:43:48.314Z,4.00
2022-12-11T12:46:30.034Z,4.11
2022-12-11T12:48:59.847Z,4.18
2022-12-11T12:51:31.618Z,4.04
2022-12-11T12:54:16.999Z,3.77
2022-12-11T12:56:46.991Z,4.27
2022-12-11T12:59:24.046Z,4.51
2022-12-11T13:02:00.334Z,5.30
2022-12-11T13:04:58.559Z,5.16
2022-12-11T13:07:31.143Z,5.86
2022-12-11T13:10:06.640Z,6.46
2022-12-11T13:12:42.587Z,6.68
2022-12-11T13:15:32.475Z,6.80
2022-12-11T13:18:06.542Z,6.55
2022-12-11T13:20:35.687Z,6.20
2022-12-11T13:23:17.700Z,6.09
2022-12-11T13:25:55.318Z,5.29
2022-12-11T13:28:29.735Z,5.30
2022-12-11T13:31:06.436Z,4.99
2022-12-11T13:33:42.832Z,5.10
2022-12-11T13:36:28.386Z,5.27
2022-12-11T13:38:59.671Z,5.07
2022-12-11T13:41:29.231Z,4.88
2022-12-11T13:43:58.825Z,4.92
2022-12-11T13:46:29.684Z,5.32
2022-12-11T13:49:01.770Z,5.27
2022-12-11T13:51:31.721Z,4.51
2022-12-11T13:54:16.729Z,4.03
2022-12-11T13:56:59.221Z,3.84
2022-12-11T13:59:30.327Z,4.05
2022-12-11T14:02:01.153Z,3.95
2022-12-11T14:04:31.376Z,4.17
2022-12-11T14:06:59.915Z,3.49
2022-12-11T14:09:29.449Z,3.09
2022-12-11T14:11:59.256Z,3.00
2022-12-11T14:14:40.078Z,3.16
2022-12-11T14:17:07.938Z,3.22
2022-12-11T14:19:37.181Z,3.02
2022-12-11T14:22:07.853Z,2.97
2022-12-11T14:24:35.870Z,3.04
2022-12-11T14:27:04.768Z,2.92
2022-12-11T14:29:34.330Z,2.95
2022-12-11T14:32:05.279Z,3.25
2022-12-11T14:34:38.495Z,3.58
2022-12-11T14:37:08.751Z,3.70
2022-12-11T14:39:41.245Z,3.84
2022-12-11T14:42:13.519Z,3.30
2022-12-11T14:44:49.610Z,3.85
2022-12-11T14:47:22.715Z,4.00
2022-12-11T14:49:58.655Z,3.51
2022-12-11T14:52:31.409Z,3.96
2022-12-11T14:55:05.076Z,4.21
2022-12-11T14:57:35.162Z,3.96
2022-12-11T15:00:03.485Z,2.69
2022-12-11T15:02:34.174Z,2.13
2022-12-11T15:05:13.896Z,1.57
2022-12-11T15:07:43.952Z,1.78
2022-12-11T15:10:27.105Z,1.69
2022-12-11T15:12:55.865Z,1.77
2022-12-11T15:15:23.827Z,2.53
2022-12-11T15:17:53.195Z,2.74
2022-12-11T15:20:31.489Z,2.08
2022-12-11T15:23:02.540Z,2.38
2022-12-11T15:25:32.415Z,2.07
2022-12-11T15:28:02.219Z,2.01
2022-12-11T15:30:36.005Z,2.60
2022-12-11T15:33:21.859Z,2.58
2022-12-11T15:35:57.699Z,2.21
2022-12-11T15:38:31.375Z,2.18
2022-12-11T15:40:59.880Z,1.94
2022-12-11T15:43:29.331Z,1.90
2022-12-11T15:45:57.264Z,2.06
2022-12-11T15:48:25.661Z,1.82
2022-12-11T15:50:54.814Z,2.04
2022-12-11T15:53:22.635Z,2.25
2022-12-11T15:55:51.097Z,1.24
2022-12-11T15:58:22.072Z,1.05
2022-12-11T16:00:50.342Z,0.59
2022-12-11T16:03:20.375Z,1.21
2022-12-11T16:05:49.790Z,1.64
2022-12-11T16:08:21.291Z,1.24
2022-12-11T16:10:50.355Z,0.75
2022-12-11T16:13:18.305Z,0.27
2022-12-11T16:15:48.290Z,-0.39
2022-12-11T16:18:17.926Z,-0.11
2022-12-11T16:20:46.232Z,-0.28
2022-12-11T16:23:16.387Z,-0.19
2022-12-11T16:25:46.522Z,-0.69
2022-12-11T16:28:16.483Z,-0.75
2022-12-11T16:30:44.879Z,-0.46
2022-12-11T16:33:13.714Z,0.15
2022-12-11T16:35:42.673Z,0.34
2022-12-11T16:38:11.101Z,-0.02
2022-12-11T16:40:39.346Z,-0.06
2022-12-11T16:43:08.981Z,-0.17
2022-12-11T16:45:36.860Z,-0.24
2022-12-11T16:48:06.320Z,-0.12
2022-12-11T16:50:34.637Z,-0.49
2022-12-11T16:53:02.729Z,-0.75
2022-12-11T16:55:30.687Z,-0.71
2022-12-11T16:57:58.569Z,-0.81
2022-12-11T17:00:27.859Z,-0.85
2022-12-11T17:02:55.759Z,-0.87
2022-12-11T17:05:25.038Z,-0.97
2022-12-11T17:07:52.916Z,-1.23
2022-12-11T17:10:20.749Z,-0.91
2022-12-11T17:12:48.593Z,-1.01
2022-12-11T17:15:18.375Z,-0.48
2022-12-11T17:17:47.746Z,-0.79
2022-12-11T17:20:15.731Z,-0.58
2022-12-11T17:22:44.027Z,-0.98
2022-12-11T17:25:12.195Z,-1.04
2022-12-11T17:27:40.210Z,-0.87
2022-12-11T17:30:09.375Z,-0.31
2022-12-11T17:32:37.042Z,0.25
2022-12-11T17:35:07.577Z,0.97
2022-12-11T17:37:35.266Z,1.37
2022-12-11T17:40:03.479Z,0.84
2022-12-11T17:42:31.174Z,0.46
2022-12-11T17:44:58.917Z,0.92
2022-12-11T17:47:26.786Z,1.37
2022-12-11T17:49:54.809Z,1.41
2022-12-11T17:52:24.035Z,1.41
2022-12-11T17:54:53.800Z,1.58
2022-12-11T17:57:21.643Z,1.62
2022-12-11T17:59:49.324Z,0.64
2022-12-11T18:02:17.138Z,0.46
2022-12-11T18:04:44.907Z,0.81
2022-12-11T18:07:12.728Z,1.12
2022-12-11T18:09:42.506Z,0.30
2022-12-11T18:12:11.133Z,0.43
2022-12-11T18:14:39.196Z,0.53
2022-12-11T18:17:07.116Z,0.04
2022-12-11T18:19:34.869Z,-0.32
2022-12-11T18:22:02.627Z,-0.67
2022-12-11T18:24:34.022Z,-1.05
2022-12-11T18:27:03.831Z,-0.89
2022-12-11T18:29:31.867Z,-0.99
2022-12-11T18:31:59.811Z,-0.96
2022-12-11T18:34:27.693Z,-0.94
2022-12-11T18:36:55.433Z,-1.11
2022-12-11T18:39:23.186Z,-0.67
2022-12-11T18:42:24.018Z,0.12
2022-12-11T18:44:39.994Z,0.30
2022-12-11T18:47:07.767Z,-0.14
2022-12-11T18:49:35.647Z,-0.12
2022-12-11T18:52:03.435Z,-0.31
2022-12-11T18:54:31.407Z,0.05
2022-12-11T18:56:59.126Z,-0.17
2022-12-11T18:59:27.334Z,0.37
2022-12-11T19:01:56.438Z,0.45
2022-12-11T19:04:24.263Z,0.77
2022-12-11T19:06:52.362Z,0.09
2022-12-11T19:09:20.142Z,0.06
2022-12-11T19:11:48.532Z,-0.11
2022-12-11T19:14:16.347Z,-0.74
2022-12-11T19:16:45.417Z,-0.87
2022-12-11T19:19:17.329Z,-0.17
2022-12-11T19:21:45.700Z,0.05
2022-12-11T19:24:16.264Z,0.37
2022-12-11T19:26:44.365Z,0.90
2022-12-11T19:29:20.232Z,1.32
2022-12-11T19:31:48.506Z,1.04
2022-12-11T19:34:18.271Z,1.04
2022-12-11T19:36:45.983Z,-0.27
2022-12-11T19:39:14.814Z,-0.34
2022-12-11T19:41:42.773Z,0.07
2022-12-11T19:44:10.839Z,0.39
2022-12-11T19:46:39.498Z,0.11
2022-12-11T19:49:07.441Z,-0.08
2022-12-11T19:51:39.366Z,0.67
2022-12-11T19:54:08.627Z,1.37
2022-12-11T19:56:37.105Z,1.53
2022-12-11T19:59:06.883Z,1.31
2022-12-11T20:01:37.645Z,1.54
2022-12-11T20:04:07.688Z,-0.04
2022-12-11T20:06:40.038Z,-1.07
2022-12-11T20:09:10.819Z,-1.56
2022-12-11T20:11:39.233Z,-1.24
2022-12-11T20:14:07.538Z,-1.34
2022-12-11T20:17:02.186Z,-1.11
2022-12-11T20:19:23.366Z,-0.96
2022-12-11T20:21:52.505Z,-0.53
2022-12-11T20:24:20.219Z,-0.97
2022-12-11T20:26:48.076Z,-0.86
2022-12-11T20:29:15.916Z,-1.05
2022-12-11T20:31:44.484Z,-0.90
2022-12-11T20:34:12.794Z,-0.16
2022-12-11T20:36:40.524Z,-0.13
2022-12-11T20:39:09.989Z,-0.42
2022-12-11T20:41:37.738Z,-0.69
2022-12-11T20:44:05.449Z,-0.94
2022-12-11T20:46:33.089Z,-1.05
2022-12-11T20:49:01.201Z,-0.72
2022-12-11T20:51:32.750Z,-0.38
2022-12-11T20:54:01.225Z,-0.61
2022-12-11T20:56:32.005Z,-0.77
2022-12-11T20:59:00.779Z,-0.70
2022-12-11T21:01:31.690Z,-0.49
2022-12-11T21:04:00.373Z,-0.07
2022-12-11T21:06:31.031Z,-0.57
2022-12-11T21:09:00.762Z,-0.64
2022-12-11T21:11:30.168Z,-0.68
2022-12-11T21:13:58.032Z,-0.37
2022-12-11T21:16:26.520Z,-0.62
2022-12-11T21:18:56.039Z,-0.48
2022-12-11T21:21:23.919Z,-0.04
2022-12-11T21:23:51.789Z,-0.22
2022-12-11T21:26:19.882Z,0.12
2022-12-11T21:28:49.120Z,-0.42
2022-12-11T21:31:19.585Z,-0.73
2022-12-11T21:33:48.207Z,-0.71
2022-12-11T21:36:16.347Z,-0.63
2022-12-11T21:38:46.004Z,-0.62
2022-12-11T21:41:16.020Z,-0.57
2022-12-11T21:44:19.288Z,-0.86
2022-12-11T21:46:34.362Z,-0.99
2022-12-11T21:49:02.210Z,-0.72
2022-12-11T21:51:36.848Z,-1.01
2022-12-11T21:54:07.341Z,-1.11
2022-12-11T21:56:35.152Z,-0.68
2022-12-11T21:59:03.189Z,-0.52
2022-12-11T22:01:34.204Z,-0.43
2022-12-11T22:04:04.890Z,-0.68
2022-12-11T22:06:32.675Z,-0.58
2022-12-11T22:09:00.396Z,-0.86
2022-12-11T22:11:30.619Z,-0.80
2022-12-11T22:13:58.772Z,-1.01
2022-12-11T22:16:27.005Z,-0.60
2022-12-11T22:18:54.765Z,-0.86
2022-12-11T22:21:23.879Z,-0.83
2022-12-11T22:23:51.712Z,-0.62
2022-12-11T22:26:21.508Z,-1.08
2022-12-11T22:28:50.046Z,-1.17
2022-12-11T22:31:20.431Z,-0.75
2022-12-11T22:33:49.802Z,-1.14
2022-12-11T22:36:18.514Z,-0.74
2022-12-11T22:38:48.443Z,-1.12
2022-12-11T22:41:22.504Z,-1.18
2022-12-11T22:43:50.490Z,-0.98
2022-12-11T22:46:19.300Z,-0.84
2022-12-11T22:48:47.145Z,-1.05
2022-12-11T22:51:14.955Z,-0.51
2022-12-11T22:53:42.826Z,-0.45
2022-12-11T22:56:13.500Z,0.10
2022-12-11T22:58:41.656Z,0.09
2022-12-11T23:01:11.657Z,-0.01
2022-12-11T23:03:39.579Z,-0.27
2022-12-11T23:06:08.972Z,-0.74
2022-12-11T23:08:37.274Z,-0.28
2022-12-11T23:11:12.595Z,-0.80
2022-12-11T23:13:41.362Z,-0.53
2022-12-11T23:16:09.654Z,-0.72
2022-12-11T23:18:37.384Z,-1.29
2022-12-11T23:21:06.612Z,-1.15
2022-12-11T23:23:34.496Z,-1.34
2022-12-11T23:26:03.294Z,-1.16
2022-12-11T23:28:32.332Z,-0.69
2022-12-11T23:31:00.214Z,-0.18
2022-12-11T23:33:28.071Z,-0.26
2022-12-11T23:35:55.860Z,0.10
2022-12-11T23:38:23.636Z,0.20
2022-12-11T23:40:53.270Z,-0.04
2022-12-11T23:43:20.966Z,0.62
2022-12-11T23:45:50.098Z,0.50
2022-12-11T23:48:17.994Z,0.29
2022-12-11T23:50:46.463Z,0.22
2022-12-11T23:53:14.183Z,0.40
2022-12-11T23:55:43.320Z,0.24
2022-12-11T23:58:11.835Z,0.02
